createdAt,value
2024-04-09T00:03:17.981Z,68.80
2024-04-09T00:08:20.028Z,68.50
2024-04-09T00:13:22.115Z,69.40
2024-04-09T00:18:26.016Z,68.90
2024-04-09T00:23:29.943Z,69.70
2024-04-09T00:28:32.277Z,70.40
2024-04-09T00:33:34.665Z,69.80
2024-04-09T00:38:36.644Z,70.20
2024-04-09T00:43:38.747Z,70.70
2024-04-09T00:48:43.070Z,71.30
2024-04-09T00:53:48.596Z,71.60
2024-04-09T00:58:50.501Z,71.60
2024-04-09T01:03:52.525Z,72.20
2024-04-09T01:08:54.518Z,71.30
2024-04-09T01:13:56.703Z,71.90
2024-04-09T01:18:58.658Z,70.40
2024-04-09T01:24:00.674Z,70.50
2024-04-09T01:29:02.560Z,70.00
2024-04-09T01:34:05.787Z,71.50
2024-04-09T01:39:09.938Z,69.80
2024-04-09T01:44:12.100Z,68.70
2024-04-09T01:49:13.936Z,67.20
2024-04-09T01:54:15.956Z,68.00
2024-04-09T01:59:17.923Z,68.60
2024-04-09T02:04:20.054Z,67.20
2024-04-09T02:09:23.520Z,65.80
2024-04-09T02:14:27.512Z,65.70
2024-04-09T02:19:30.659Z,65.40
2024-04-09T02:24:32.686Z,65.80
2024-04-09T02:29:34.649Z,68.50
2024-04-09T02:34:37.358Z,68.10
2024-04-09T02:39:39.308Z,68.90
2024-04-09T02:44:41.427Z,68.50
2024-04-09T02:49:45.561Z,67.60
2024-04-09T02:54:48.217Z,69.00
2024-04-09T02:59:56.205Z,69.40
2024-04-09T03:04:58.123Z,70.40
2024-04-09T03:10:00.653Z,69.30
2024-04-09T03:15:02.737Z,69.00
2024-04-09T03:20:06.055Z,69.90
2024-04-09T03:25:08.201Z,70.30
2024-04-09T03:30:10.647Z,69.90
2024-04-09T03:35:12.643Z,69.80
2024-04-09T03:40:15.200Z,69.50
2024-04-09T03:45:17.397Z,70.20
2024-04-09T03:50:19.417Z,69.90
2024-04-09T03:55:21.618Z,69.80
2024-04-09T04:00:23.598Z,70.80
2024-04-09T04:05:26.415Z,71.10
2024-04-09T04:10:28.259Z,71.60
2024-04-09T04:15:30.249Z,71.90
2024-04-09T04:20:32.111Z,72.10
2024-04-09T04:25:34.004Z,72.50
2024-04-09T04:30:36.168Z,73.20
2024-04-09T04:35:38.148Z,73.60
2024-04-09T04:40:40.570Z,73.80
2024-04-09T04:45:43.700Z,73.90
2024-04-09T04:50:49.262Z,73.90
2024-04-09T04:55:51.846Z,74.10
2024-04-09T05:00:54.334Z,74.50
2024-04-09T05:05:56.672Z,74.90
2024-04-09T05:10:58.912Z,75.40
2024-04-09T05:16:01.058Z,75.30
2024-04-09T05:21:03.686Z,75.50
2024-04-09T05:26:05.671Z,75.60
2024-04-09T05:31:07.762Z,76.00
2024-04-09T05:36:09.816Z,75.40
2024-04-09T05:41:12.913Z,75.50
2024-04-09T05:46:15.048Z,75.10
2024-04-09T05:51:17.108Z,75.40
2024-04-09T05:56:19.207Z,74.30
2024-04-09T06:01:21.382Z,74.70
2024-04-09T06:06:23.724Z,75.70
2024-04-09T06:11:25.789Z,70.80
2024-04-09T06:16:27.794Z,66.80
2024-04-09T06:21:29.788Z,65.30
2024-04-09T06:26:31.841Z,64.10
2024-04-09T06:31:33.940Z,63.40
2024-04-09T06:36:36.082Z,61.80
2024-04-09T06:41:38.450Z,61.40
2024-04-09T06:46:40.393Z,61.10
2024-04-09T06:51:42.619Z,61.00
2024-04-09T06:56:44.707Z,60.40
2024-04-09T07:01:46.895Z,60.50
2024-04-09T07:06:51.195Z,60.60
2024-04-09T07:11:53.430Z,60.50
2024-04-09T07:16:55.398Z,60.30
2024-04-09T07:21:57.440Z,59.70
2024-04-09T07:26:59.494Z,60.00
2024-04-09T07:32:02.378Z,60.20
2024-04-09T07:37:04.596Z,59.80
2024-04-09T07:42:08.075Z,60.40
2024-04-09T07:47:12.261Z,60.00
2024-04-09T07:52:14.509Z,61.00
2024-04-09T07:57:16.430Z,62.30
2024-04-09T08:02:18.359Z,64.10
2024-04-09T08:07:20.396Z,65.70
2024-04-09T08:12:22.731Z,65.20
2024-04-09T08:17:25.025Z,65.90
2024-04-09T08:22:27.009Z,65.80
2024-04-09T08:27:30.178Z,66.40
2024-04-09T08:32:33.587Z,67.10
2024-04-09T08:37:35.714Z,66.70
2024-04-09T08:42:41.736Z,65.80
2024-04-09T08:47:49.849Z,64.00
2024-04-09T08:52:54.370Z,63.00
2024-04-09T08:57:56.378Z,62.80
2024-04-09T09:02:58.373Z,62.30
2024-04-09T09:08:05.745Z,61.80
2024-04-09T09:13:09.932Z,62.30
2024-04-09T09:18:39.891Z,62.30
2024-04-09T09:23:41.999Z,62.10
2024-04-09T09:28:44.253Z,61.90
2024-04-09T09:33:49.998Z,60.60
2024-04-09T09:38:54.449Z,60.70
2024-04-09T09:43:58.841Z,60.30
2024-04-09T09:49:04.922Z,60.50
2024-04-09T09:54:07.596Z,60.10
2024-04-09T09:59:11.857Z,60.00
2024-04-09T10:04:17.451Z,58.90
2024-04-09T10:09:19.747Z,59.10
2024-04-09T10:14:25.039Z,58.70
2024-04-09T10:19:36.662Z,59.10
2024-04-09T10:24:40.384Z,59.90
2024-04-09T10:29:52.183Z,59.80
2024-04-09T10:34:55.796Z,60.40
2024-04-09T10:39:58.030Z,60.40
2024-04-09T10:45:00.221Z,59.70
2024-04-09T10:50:04.663Z,59.30
2024-04-09T10:55:15.724Z,58.20
2024-04-09T11:00:18.026Z,58.90
2024-04-09T11:05:20.066Z,59.10
2024-04-09T11:10:22.344Z,59.10
2024-04-09T11:15:24.511Z,59.40
2024-04-09T11:20:26.807Z,58.60
2024-04-09T11:25:28.861Z,58.80
2024-04-09T11:30:35.523Z,58.70
2024-04-09T11:35:37.951Z,58.60
2024-04-09T11:40:40.063Z,59.00
2024-04-09T11:45:42.615Z,59.10
2024-04-09T11:50:44.816Z,58.90
2024-04-09T11:55:47.005Z,59.40
2024-04-09T12:00:49.251Z,59.40
2024-04-09T12:05:51.327Z,59.90
2024-04-09T12:10:54.126Z,60.50
2024-04-09T12:15:56.187Z,60.30
2024-04-09T12:20:58.399Z,59.60
2024-04-09T12:26:00.358Z,60.30
2024-04-09T12:31:02.548Z,59.60
2024-04-09T12:36:05.439Z,59.10
2024-04-09T12:41:07.535Z,59.30
2024-04-09T12:46:11.374Z,59.80
2024-04-09T12:51:13.464Z,59.40
2024-04-09T12:56:15.448Z,58.60
2024-04-09T13:01:17.740Z,56.00
2024-04-09T13:06:20.059Z,55.50
2024-04-09T13:11:22.574Z,55.30
2024-04-09T13:21:29.975Z,54.70
2024-04-09T13:26:31.977Z,55.20
2024-04-09T13:31:34.384Z,55.80
2024-04-09T13:36:36.361Z,57.10
2024-04-09T13:41:38.289Z,58.00
2024-04-09T13:46:40.404Z,58.70
2024-04-09T13:51:42.475Z,58.40
2024-04-09T13:56:45.046Z,58.50
2024-04-09T14:01:47.338Z,55.40
2024-04-09T14:06:49.756Z,54.20
2024-04-09T14:11:51.968Z,53.30
2024-04-09T14:16:54.721Z,53.00
2024-04-09T14:21:57.165Z,54.50
2024-04-09T14:26:59.135Z,53.60
2024-04-09T14:32:01.136Z,54.20
2024-04-09T14:37:03.609Z,54.70
2024-04-09T14:42:05.962Z,56.50
2024-04-09T14:47:10.774Z,57.30
2024-04-09T14:52:12.944Z,57.30
2024-04-09T14:57:14.854Z,57.80
2024-04-09T15:02:17.857Z,56.80
2024-04-09T15:07:20.182Z,56.10
2024-04-09T15:12:24.485Z,53.10
2024-04-09T15:17:26.787Z,53.10
2024-04-09T15:22:28.840Z,51.80
2024-04-09T15:27:32.772Z,52.10
2024-04-09T15:32:35.975Z,51.00
2024-04-09T15:37:39.010Z,52.30
2024-04-09T15:42:41.349Z,52.10
2024-04-09T15:47:43.492Z,50.70
2024-04-09T15:52:48.188Z,50.90
2024-04-09T15:57:50.308Z,52.80
2024-04-09T16:02:52.488Z,49.70
2024-04-09T16:07:54.574Z,50.30
2024-04-09T16:12:56.982Z,50.90
2024-04-09T16:18:00.150Z,49.20
2024-04-09T16:23:02.563Z,49.20
2024-04-09T16:28:06.816Z,49.90
2024-04-09T16:33:08.967Z,49.70
2024-04-09T16:38:12.162Z,51.20
2024-04-09T16:43:14.458Z,51.10
2024-04-09T16:48:16.750Z,51.50
2024-04-09T16:53:19.048Z,52.50
2024-04-09T16:58:21.150Z,53.80
2024-04-09T17:03:24.174Z,55.40
2024-04-09T17:08:29.083Z,57.30
2024-04-09T17:13:32.711Z,58.00
2024-04-09T17:18:34.859Z,58.30
2024-04-09T17:23:39.048Z,58.50
2024-04-09T17:28:41.002Z,59.00
2024-04-09T17:33:43.593Z,59.10
2024-04-09T17:38:45.753Z,59.70
2024-04-09T17:43:48.277Z,59.20
2024-04-09T17:48:50.444Z,59.50
2024-04-09T17:53:52.353Z,58.70
2024-04-09T17:58:54.422Z,58.40
2024-04-09T18:03:57.400Z,58.20
2024-04-09T18:08:59.512Z,58.00
2024-04-09T18:14:02.083Z,58.60
2024-04-09T18:19:04.451Z,58.50
2024-04-09T18:24:06.525Z,58.40
2024-04-09T18:29:11.952Z,57.80
2024-04-09T18:34:16.670Z,57.80
2024-04-09T18:39:18.973Z,57.80
2024-04-09T18:44:22.828Z,58.30
2024-04-09T18:49:24.852Z,58.40
2024-04-09T18:54:26.724Z,58.60
2024-04-09T18:59:30.705Z,58.50
2024-04-09T19:04:33.309Z,58.30
2024-04-09T19:09:37.713Z,59.50
2024-04-09T19:14:41.276Z,59.40
2024-04-09T19:19:43.259Z,59.80
2024-04-09T19:24:45.205Z,60.00
2024-04-09T19:29:47.083Z,60.70
2024-04-09T19:34:49.571Z,60.70
2024-04-09T19:39:51.500Z,61.40
2024-04-09T19:44:53.942Z,61.50
2024-04-09T19:49:55.924Z,61.70
2024-04-09T19:54:57.840Z,61.90
2024-04-09T20:00:01.819Z,62.50
2024-04-09T20:05:04.714Z,62.60
2024-04-09T20:10:08.177Z,63.20
2024-04-09T20:15:10.106Z,63.20
2024-04-09T20:20:11.994Z,63.80
2024-04-09T20:25:14.027Z,63.50
2024-04-09T20:30:16.249Z,64.00
2024-04-09T20:35:28.471Z,64.00
2024-04-09T20:40:38.421Z,64.00
2024-04-09T20:45:40.375Z,64.70
2024-04-09T20:50:42.831Z,64.80
2024-04-09T20:55:44.870Z,64.90
2024-04-09T21:00:48.489Z,65.00
2024-04-09T21:05:50.395Z,65.30
2024-04-09T21:10:52.444Z,65.50
2024-04-09T21:15:54.591Z,65.70
2024-04-09T21:20:56.575Z,65.70
2024-04-09T21:25:58.453Z,66.10
2024-04-09T21:31:01.073Z,66.30
2024-04-09T21:36:03.032Z,66.20
2024-04-09T21:41:08.272Z,66.30
2024-04-09T21:46:10.194Z,66.40
2024-04-09T21:51:12.075Z,66.20
2024-04-09T21:56:14.054Z,66.40
2024-04-09T22:01:16.032Z,66.90
2024-04-09T22:06:18.055Z,66.70
2024-04-09T22:11:20.138Z,67.20
2024-04-09T22:16:22.213Z,67.60
2024-04-09T22:21:24.728Z,67.70
2024-04-09T22:26:27.125Z,67.70
2024-04-09T22:31:29.171Z,67.80
2024-04-09T22:36:31.230Z,68.20
2024-04-09T22:41:33.437Z,68.00
2024-04-09T22:46:35.533Z,68.70
2024-04-09T22:51:37.862Z,68.60
2024-04-09T22:56:39.726Z,68.50
2024-04-09T23:01:41.716Z,68.90
2024-04-09T23:06:44.047Z,69.00
2024-04-09T23:11:46.430Z,68.90
2024-04-09T23:16:49.585Z,68.70
2024-04-09T23:21:51.751Z,69.10
2024-04-09T23:26:53.622Z,69.00
2024-04-09T23:31:55.492Z,69.20
2024-04-09T23:36:57.424Z,69.90
2024-04-09T23:42:05.755Z,70.20
2024-04-09T23:47:08.313Z,69.50
2024-04-09T23:52:10.207Z,70.20
2024-04-09T23:57:12.157Z,70.70
